sensor_id;sensor_type;location;lat;lon;timestamp;pressure;altitude;pressure_sealevel;temperature;humidity
69223;BME280;56514;51.816;-0.026;2023-03-05T00:01:26;102019.34;;;6.52;57.54
69223;BME280;56514;51.816;-0.026;2023-03-05T00:04:32;102019.34;;;6.52;57.76
69223;BME280;56514;51.816;-0.026;2023-03-05T00:07:37;102017.56;;;6.52;57.87
69223;BME280;56514;51.816;-0.026;2023-03-05T00:10:42;102007.13;;;6.51;57.65
69223;BME280;56514;51.816;-0.026;2023-03-05T00:13:51;102017.69;;;6.48;57.81
69223;BME280;56514;51.816;-0.026;2023-03-05T00:17:00;102003.91;;;6.43;57.63
69223;BME280;56514;51.816;-0.026;2023-03-05T00:20:10;102009.16;;;6.43;57.83
69223;BME280;56514;51.816;-0.026;2023-03-05T00:23:19;102001.22;;;6.44;57.44
69223;BME280;56514;51.816;-0.026;2023-03-05T00:26:29;102000.41;;;6.42;57.34
69223;BME280;56514;51.816;-0.026;2023-03-05T00:29:38;102001.31;;;6.41;57.74
69223;BME280;56514;51.816;-0.026;2023-03-05T00:32:48;101995.31;;;6.38;57.62
69223;BME280;56514;51.816;-0.026;2023-03-05T00:35:43;101996.13;;;6.40;57.79
69223;BME280;56514;51.816;-0.026;2023-03-05T00:38:28;101996.13;;;6.40;57.51
69223;BME280;56514;51.816;-0.026;2023-03-05T00:41:13;101991.78;;;6.39;57.71
69223;BME280;56514;51.816;-0.026;2023-03-05T00:43:58;101986.53;;;6.39;57.83
69223;BME280;56514;51.816;-0.026;2023-03-05T00:46:44;101983.13;;;6.37;57.73
69223;BME280;56514;51.816;-0.026;2023-03-05T00:49:29;101988.53;;;6.31;57.61
69223;BME280;56514;51.816;-0.026;2023-03-05T00:52:14;101985.91;;;6.31;57.46
69223;BME280;56514;51.816;-0.026;2023-03-05T00:54:59;101982.41;;;6.32;57.85
69223;BME280;56514;51.816;-0.026;2023-03-05T00:57:43;101984.16;;;6.31;57.59
69223;BME280;56514;51.816;-0.026;2023-03-05T01:00:28;101979.88;;;6.29;57.52
69223;BME280;56514;51.816;-0.026;2023-03-05T01:03:13;101976.47;;;6.25;57.37
69223;BME280;56514;51.816;-0.026;2023-03-05T01:05:59;101976.44;;;6.27;57.83
69223;BME280;56514;51.816;-0.026;2023-03-05T01:08:44;101969.56;;;6.23;57.73
69223;BME280;56514;51.816;-0.026;2023-03-05T01:11:29;101963.47;;;6.22;57.79
69223;BME280;56514;51.816;-0.026;2023-03-05T01:14:15;101956.53;;;6.21;57.91
69223;BME280;56514;51.816;-0.026;2023-03-05T01:17:00;101952.13;;;6.22;57.37
69223;BME280;56514;51.816;-0.026;2023-03-05T01:19:45;101954.69;;;6.23;57.64
69223;BME280;56514;51.816;-0.026;2023-03-05T01:22:30;101948.72;;;6.20;57.58
69223;BME280;56514;51.816;-0.026;2023-03-05T01:25:16;101934.59;;;6.24;57.60
69223;BME280;56514;51.816;-0.026;2023-03-05T01:28:01;101933.88;;;6.19;57.79
69223;BME280;56514;51.816;-0.026;2023-03-05T01:30:47;101929.53;;;6.18;57.56
69223;BME280;56514;51.816;-0.026;2023-03-05T01:33:32;101927.84;;;6.17;58.03
69223;BME280;56514;51.816;-0.026;2023-03-05T01:36:17;101926.09;;;6.16;57.92
69223;BME280;56514;51.816;-0.026;2023-03-05T01:39:03;101922.66;;;6.15;57.56
69223;BME280;56514;51.816;-0.026;2023-03-05T01:41:48;101918.28;;;6.14;57.54
69223;BME280;56514;51.816;-0.026;2023-03-05T01:44:33;101920.97;;;6.13;57.89
69223;BME280;56514;51.816;-0.026;2023-03-05T01:47:19;101913.94;;;6.15;57.13
69223;BME280;56514;51.816;-0.026;2023-03-05T01:50:10;101913.97;;;6.13;57.52
69223;BME280;56514;51.816;-0.026;2023-03-05T01:53:03;101913.19;;;6.10;57.56
69223;BME280;56514;51.816;-0.026;2023-03-05T01:55:50;101907.16;;;6.08;57.63
69223;BME280;56514;51.816;-0.026;2023-03-05T01:58:35;101906.25;;;6.09;57.70
69223;BME280;56514;51.816;-0.026;2023-03-05T02:01:23;101903.72;;;6.06;57.32
69223;BME280;56514;51.816;-0.026;2023-03-05T02:04:10;101900.19;;;6.07;57.60
69223;BME280;56514;51.816;-0.026;2023-03-05T02:06:58;101898.59;;;6.03;57.40
69223;BME280;56514;51.816;-0.026;2023-03-05T02:09:43;101891.56;;;6.05;57.70
69223;BME280;56514;51.816;-0.026;2023-03-05T02:12:28;101884.53;;;6.05;57.53
69223;BME280;56514;51.816;-0.026;2023-03-05T02:15:14;101877.63;;;6.03;57.45
69223;BME280;56514;51.816;-0.026;2023-03-05T02:18:00;101886.25;;;6.06;57.69
69223;BME280;56514;51.816;-0.026;2023-03-05T02:23:40;101872.50;;;6.00;57.72
69223;BME280;56514;51.816;-0.026;2023-03-05T02:26:26;101869.97;;;5.97;57.86
69223;BME280;56514;51.816;-0.026;2023-03-05T02:29:14;101864.72;;;5.97;57.87
69223;BME280;56514;51.816;-0.026;2023-03-05T02:32:01;101861.25;;;5.96;57.32
69223;BME280;56514;51.816;-0.026;2023-03-05T02:34:46;101861.25;;;5.96;57.49
69223;BME280;56514;51.816;-0.026;2023-03-05T02:37:32;101862.09;;;5.97;57.44
69223;BME280;56514;51.816;-0.026;2023-03-05T02:40:16;101856.91;;;5.95;57.08
69223;BME280;56514;51.816;-0.026;2023-03-05T02:43:01;101853.44;;;5.95;56.90
69223;BME280;56514;51.816;-0.026;2023-03-05T02:45:46;101853.53;;;5.92;56.92
69223;BME280;56514;51.816;-0.026;2023-03-05T02:48:32;101846.78;;;5.85;57.52
69223;BME280;56514;51.816;-0.026;2023-03-05T02:51:17;101852.16;;;5.79;57.04
69223;BME280;56514;51.816;-0.026;2023-03-05T02:54:02;101852.16;;;5.79;57.32
69223;BME280;56514;51.816;-0.026;2023-03-05T02:56:48;101835.44;;;5.84;56.94
69223;BME280;56514;51.816;-0.026;2023-03-05T02:59:32;101827.78;;;5.77;57.05
69223;BME280;56514;51.816;-0.026;2023-03-05T03:02:17;101832.56;;;5.92;56.18
69223;BME280;56514;51.816;-0.026;2023-03-05T03:05:02;101814.66;;;5.78;56.39
69223;BME280;56514;51.816;-0.026;2023-03-05T03:07:48;101814.66;;;5.78;56.36
69223;BME280;56514;51.816;-0.026;2023-03-05T03:10:33;101816.53;;;5.73;56.55
69223;BME280;56514;51.816;-0.026;2023-03-05T03:13:18;101812.31;;;5.69;56.32
69223;BME280;56514;51.816;-0.026;2023-03-05T03:16:08;101808.91;;;5.66;56.65
69223;BME280;56514;51.816;-0.026;2023-03-05T03:18:54;101797.66;;;5.64;56.43
69223;BME280;56514;51.816;-0.026;2023-03-05T03:21:38;101793.25;;;5.64;56.79
69223;BME280;56514;51.816;-0.026;2023-03-05T03:24:23;101792.44;;;5.64;56.74
69223;BME280;56514;51.816;-0.026;2023-03-05T03:27:09;101786.19;;;5.68;56.47
69223;BME280;56514;51.816;-0.026;2023-03-05T03:29:54;101783.66;;;5.65;56.42
69223;BME280;56514;51.816;-0.026;2023-03-05T03:32:39;101773.91;;;5.70;56.01
69223;BME280;56514;51.816;-0.026;2023-03-05T03:35:24;101784.38;;;5.70;56.42
69223;BME280;56514;51.816;-0.026;2023-03-05T03:38:09;101782.69;;;5.67;55.90
69223;BME280;56514;51.816;-0.026;2023-03-05T03:40:55;101778.28;;;5.69;56.43
69223;BME280;56514;51.816;-0.026;2023-03-05T03:43:40;101780.84;;;5.71;56.29
69223;BME280;56514;51.816;-0.026;2023-03-05T03:46:24;101771.97;;;5.75;56.42
69223;BME280;56514;51.816;-0.026;2023-03-05T03:49:15;101762.34;;;5.77;56.13
69223;BME280;56514;51.816;-0.026;2023-03-05T03:52:00;101770.09;;;5.80;55.93
69223;BME280;56514;51.816;-0.026;2023-03-05T03:54:45;101758.06;;;5.74;56.25
69223;BME280;56514;51.816;-0.026;2023-03-05T03:57:30;101762.38;;;5.75;56.04
69223;BME280;56514;51.816;-0.026;2023-03-05T04:00:17;101751.91;;;5.75;55.84
69223;BME280;56514;51.816;-0.026;2023-03-05T04:03:03;101751.13;;;5.72;55.97
69223;BME280;56514;51.816;-0.026;2023-03-05T04:05:47;101749.44;;;5.71;55.62
69223;BME280;56514;51.816;-0.026;2023-03-05T04:08:32;101747.72;;;5.70;55.81
69223;BME280;56514;51.816;-0.026;2023-03-05T04:11:17;101738.78;;;5.77;55.46
69223;BME280;56514;51.816;-0.026;2023-03-05T04:14:04;101737.22;;;5.71;55.42
69223;BME280;56514;51.816;-0.026;2023-03-05T04:16:48;101736.06;;;5.80;54.92
69223;BME280;56514;51.816;-0.026;2023-03-05T04:19:33;101732.13;;;5.67;55.37
69223;BME280;56514;51.816;-0.026;2023-03-05T04:22:18;101725.25;;;5.63;55.20
69223;BME280;56514;51.816;-0.026;2023-03-05T04:25:03;101730.44;;;5.64;55.17
69223;BME280;56514;51.816;-0.026;2023-03-05T04:27:50;101731.41;;;5.62;55.37
69223;BME280;56514;51.816;-0.026;2023-03-05T04:30:35;101716.72;;;5.58;55.38
69223;BME280;56514;51.816;-0.026;2023-03-05T04:33:19;101716.63;;;5.61;54.84
69223;BME280;56514;51.816;-0.026;2023-03-05T04:36:04;101715.75;;;5.60;54.77
69223;BME280;56514;51.816;-0.026;2023-03-05T04:38:49;101717.66;;;5.55;55.26
69223;BME280;56514;51.816;-0.026;2023-03-05T04:41:34;101716.94;;;5.50;55.56
69223;BME280;56514;51.816;-0.026;2023-03-05T04:44:20;101716.63;;;5.61;55.01
69223;BME280;56514;51.816;-0.026;2023-03-05T04:47:00;101713.38;;;5.53;54.86
69223;BME280;56514;51.816;-0.026;2023-03-05T04:49:45;101711.66;;;5.52;55.04
69223;BME280;56514;51.816;-0.026;2023-03-05T04:52:31;101703.78;;;5.52;54.90
69223;BME280;56514;51.816;-0.026;2023-03-05T04:55:16;101697.00;;;5.46;55.16
69223;BME280;56514;51.816;-0.026;2023-03-05T04:58:02;101692.63;;;5.47;54.89
69223;BME280;56514;51.816;-0.026;2023-03-05T05:00:47;101699.72;;;5.43;55.20
69223;BME280;56514;51.816;-0.026;2023-03-05T05:03:32;101693.56;;;5.44;55.17
69223;BME280;56514;51.816;-0.026;2023-03-05T05:06:17;101688.09;;;5.52;55.22
69223;BME280;56514;51.816;-0.026;2023-03-05T05:09:02;101685.56;;;5.48;54.96
69223;BME280;56514;51.816;-0.026;2023-03-05T05:11:47;101679.41;;;5.51;55.21
69223;BME280;56514;51.816;-0.026;2023-03-05T05:14:33;101684.63;;;5.51;55.03
69223;BME280;56514;51.816;-0.026;2023-03-05T05:17:18;101681.94;;;5.54;55.01
69223;BME280;56514;51.816;-0.026;2023-03-05T05:20:04;101675.72;;;5.57;55.03
69223;BME280;56514;51.816;-0.026;2023-03-05T05:22:52;101670.34;;;5.61;55.26
69223;BME280;56514;51.816;-0.026;2023-03-05T05:25:37;101673.69;;;5.66;55.25
69223;BME280;56514;51.816;-0.026;2023-03-05T05:28:22;101665.78;;;5.68;54.81
69223;BME280;56514;51.816;-0.026;2023-03-05T05:31:09;101668.34;;;5.69;54.55
69223;BME280;56514;51.816;-0.026;2023-03-05T05:33:55;101656.16;;;5.68;54.97
69223;BME280;56514;51.816;-0.026;2023-03-05T05:36:39;101658.72;;;5.70;54.80
69223;BME280;56514;51.816;-0.026;2023-03-05T05:39:24;101658.78;;;5.68;54.45
69223;BME280;56514;51.816;-0.026;2023-03-05T05:42:09;101654.59;;;5.63;54.79
69223;BME280;56514;51.816;-0.026;2023-03-05T05:44:54;101652.88;;;5.62;54.99
69223;BME280;56514;51.816;-0.026;2023-03-05T05:47:39;101646.06;;;5.58;54.61
69223;BME280;56514;51.816;-0.026;2023-03-05T05:50:24;101641.69;;;5.57;54.66
69223;BME280;56514;51.816;-0.026;2023-03-05T05:53:10;101647.00;;;5.55;54.84
69223;BME280;56514;51.816;-0.026;2023-03-05T05:55:55;101642.78;;;5.51;54.98
69223;BME280;56514;51.816;-0.026;2023-03-05T05:58:41;101641.81;;;5.54;54.14
69223;BME280;56514;51.816;-0.026;2023-03-05T06:01:28;101648.06;;;5.50;54.97
69223;BME280;56514;51.816;-0.026;2023-03-05T06:04:14;101636.88;;;5.44;55.20
69223;BME280;56514;51.816;-0.026;2023-03-05T06:06:59;101634.31;;;5.43;55.04
69223;BME280;56514;51.816;-0.026;2023-03-05T06:09:45;101631.63;;;5.44;54.94
69223;BME280;56514;51.816;-0.026;2023-03-05T06:12:30;101635.94;;;5.45;54.47
69223;BME280;56514;51.816;-0.026;2023-03-05T06:15:15;101630.63;;;5.48;54.54
69223;BME280;56514;51.816;-0.026;2023-03-05T06:18:00;101623.59;;;5.51;54.16
69223;BME280;56514;51.816;-0.026;2023-03-05T06:20:56;101618.34;;;5.51;54.50
69223;BME280;56514;51.816;-0.026;2023-03-05T06:23:42;101623.53;;;5.52;54.60
69223;BME280;56514;51.816;-0.026;2023-03-05T06:26:27;101613.00;;;5.54;54.85
69223;BME280;56514;51.816;-0.026;2023-03-05T06:29:12;101619.84;;;5.59;54.13
69223;BME280;56514;51.816;-0.026;2023-03-05T06:31:57;101615.69;;;5.52;54.35
69223;BME280;56514;51.816;-0.026;2023-03-05T06:34:42;101614.13;;;5.47;54.46
69223;BME280;56514;51.816;-0.026;2023-03-05T06:37:27;101615.78;;;5.49;54.50
69223;BME280;56514;51.816;-0.026;2023-03-05T06:40:12;101618.41;;;5.49;53.88
69223;BME280;56514;51.816;-0.026;2023-03-05T06:42:57;101614.13;;;5.47;54.33
69223;BME280;56514;51.816;-0.026;2023-03-05T06:45:42;101615.94;;;5.44;54.23
69223;BME280;56514;51.816;-0.026;2023-03-05T06:48:27;101620.25;;;5.45;53.86
69223;BME280;56514;51.816;-0.026;2023-03-05T06:51:18;101617.84;;;5.39;54.05
69223;BME280;56514;51.816;-0.026;2023-03-05T06:54:10;101617.63;;;5.45;54.30
69223;BME280;56514;51.816;-0.026;2023-03-05T06:56:55;101620.97;;;5.51;54.03
69223;BME280;56514;51.816;-0.026;2023-03-05T06:59:40;101622.00;;;5.47;53.89
69223;BME280;56514;51.816;-0.026;2023-03-05T07:02:25;101619.31;;;5.48;53.64
69223;BME280;56514;51.816;-0.026;2023-03-05T07:05:10;101621.78;;;5.53;53.76
69223;BME280;56514;51.816;-0.026;2023-03-05T07:07:55;101623.44;;;5.55;53.47
69223;BME280;56514;51.816;-0.026;2023-03-05T07:10:41;101613.84;;;5.56;53.31
69223;BME280;56514;51.816;-0.026;2023-03-05T07:13:26;101614.81;;;5.53;53.90
69223;BME280;56514;51.816;-0.026;2023-03-05T07:16:17;101619.84;;;5.59;54.01
69223;BME280;56514;51.816;-0.026;2023-03-05T07:19:04;101618.97;;;5.59;53.43
69223;BME280;56514;51.816;-0.026;2023-03-05T07:21:50;101609.38;;;5.59;53.26
69223;BME280;56514;51.816;-0.026;2023-03-05T07:24:35;101604.81;;;5.64;53.44
69223;BME280;56514;51.816;-0.026;2023-03-05T07:27:20;101603.88;;;5.67;53.53
69223;BME280;56514;51.816;-0.026;2023-03-05T07:30:08;101592.38;;;5.71;53.52
69223;BME280;56514;51.816;-0.026;2023-03-05T07:32:53;101591.56;;;5.69;53.18
69223;BME280;56514;51.816;-0.026;2023-03-05T07:35:39;101596.84;;;5.67;52.91
69223;BME280;56514;51.816;-0.026;2023-03-05T07:38:24;101601.97;;;5.70;52.88
69223;BME280;56514;51.816;-0.026;2023-03-05T07:41:11;101594.06;;;5.72;53.04
69223;BME280;56514;51.816;-0.026;2023-03-05T07:43:58;101595.59;;;5.79;53.06
69223;BME280;56514;51.816;-0.026;2023-03-05T07:46:43;101593.84;;;5.78;52.89
69223;BME280;56514;51.816;-0.026;2023-03-05T07:49:28;101597.00;;;5.89;53.26
69223;BME280;56514;51.816;-0.026;2023-03-05T07:52:13;101587.19;;;5.95;52.76
69223;BME280;56514;51.816;-0.026;2023-03-05T07:54:58;101598.03;;;6.09;51.97
69223;BME280;56514;51.816;-0.026;2023-03-05T07:57:43;101598.75;;;6.13;52.72
69223;BME280;56514;51.816;-0.026;2023-03-05T08:00:28;101591.31;;;6.25;52.00
69223;BME280;56514;51.816;-0.026;2023-03-05T08:03:13;101593.75;;;6.30;52.01
69223;BME280;56514;51.816;-0.026;2023-03-05T08:05:58;101596.50;;;6.27;51.23
69223;BME280;56514;51.816;-0.026;2023-03-05T08:08:43;101593.88;;;6.27;50.77
69223;BME280;56514;51.816;-0.026;2023-03-05T08:11:27;101588.16;;;6.16;51.11
69223;BME280;56514;51.816;-0.026;2023-03-05T08:14:13;101587.44;;;6.12;50.96
69223;BME280;56514;51.816;-0.026;2023-03-05T08:16:57;101595.34;;;6.11;51.37
69223;BME280;56514;51.816;-0.026;2023-03-05T08:19:42;101584.59;;;6.18;51.92
69223;BME280;56514;51.816;-0.026;2023-03-05T08:22:27;101584.31;;;6.26;51.50
69223;BME280;56514;51.816;-0.026;2023-03-05T08:25:12;101582.22;;;6.35;51.54
69223;BME280;56514;51.816;-0.026;2023-03-05T08:27:58;101577.28;;;6.49;51.52
69223;BME280;56514;51.816;-0.026;2023-03-05T08:30:44;101576.78;;;6.63;51.39
69223;BME280;56514;51.816;-0.026;2023-03-05T08:33:29;101568.28;;;6.79;50.69
69223;BME280;56514;51.816;-0.026;2023-03-05T08:36:14;101570.53;;;6.88;50.83
69223;BME280;56514;51.816;-0.026;2023-03-05T08:38:59;101560.38;;;7.01;49.96
69223;BME280;56514;51.816;-0.026;2023-03-05T08:41:44;101561.13;;;7.04;49.95
69223;BME280;56514;51.816;-0.026;2023-03-05T08:44:29;101563.94;;;7.22;49.29
69223;BME280;56514;51.816;-0.026;2023-03-05T08:47:14;101557.19;;;7.16;48.79
69223;BME280;56514;51.816;-0.026;2023-03-05T08:49:59;101547.03;;;7.07;49.17
69223;BME280;56514;51.816;-0.026;2023-03-05T08:52:44;101544.28;;;7.10;49.04
69223;BME280;56514;51.816;-0.026;2023-03-05T08:55:29;101546.19;;;7.06;49.58
69223;BME280;56514;51.816;-0.026;2023-03-05T08:58:14;101539.97;;;7.09;49.22
69223;BME280;56514;51.816;-0.026;2023-03-05T09:00:59;101545.22;;;7.09;49.29
69223;BME280;56514;51.816;-0.026;2023-03-05T09:03:44;101541.19;;;7.22;49.11
69223;BME280;56514;51.816;-0.026;2023-03-05T09:06:29;101535.16;;;7.40;49.29
69223;BME280;56514;51.816;-0.026;2023-03-05T09:09:14;101533.84;;;7.50;48.80
69223;BME280;56514;51.816;-0.026;2023-03-05T09:11:59;101534.66;;;7.72;48.17
69223;BME280;56514;51.816;-0.026;2023-03-05T09:14:45;101538.03;;;7.74;48.09
69223;BME280;56514;51.816;-0.026;2023-03-05T09:17:30;101531.34;;;7.87;47.65
69223;BME280;56514;51.816;-0.026;2023-03-05T09:20:15;101524.56;;;8.02;46.82
69223;BME280;56514;51.816;-0.026;2023-03-05T09:23:00;101518.81;;;7.94;46.53
69223;BME280;56514;51.816;-0.026;2023-03-05T09:25:45;101511.00;;;7.72;46.62
69223;BME280;56514;51.816;-0.026;2023-03-05T09:28:30;101510.28;;;7.69;46.54
69223;BME280;56514;51.816;-0.026;2023-03-05T09:31:15;101509.47;;;7.87;45.79
69223;BME280;56514;51.816;-0.026;2023-03-05T09:34:01;101496.94;;;7.73;46.03
69223;BME280;56514;51.816;-0.026;2023-03-05T09:36:46;101502.47;;;7.67;46.46
69223;BME280;56514;51.816;-0.026;2023-03-05T09:39:31;101499.50;;;7.75;46.52
69223;BME280;56514;51.816;-0.026;2023-03-05T09:45:53;101485.28;;;7.99;46.30
69223;BME280;56514;51.816;-0.026;2023-03-05T09:51:38;101485.38;;;8.16;45.04
69223;BME280;56514;51.816;-0.026;2023-03-05T09:54:36;101480.41;;;8.10;45.57
69223;BME280;56514;51.816;-0.026;2023-03-05T09:57:50;101492.59;;;7.92;46.58
69223;BME280;56514;51.816;-0.026;2023-03-05T10:00:42;101484.97;;;7.86;46.78
69223;BME280;56514;51.816;-0.026;2023-03-05T10:03:29;101478.53;;;7.93;47.12
69223;BME280;56514;51.816;-0.026;2023-03-05T10:06:21;101463.22;;;8.03;48.05
69223;BME280;56514;51.816;-0.026;2023-03-05T10:13:00;101480.59;;;8.25;47.24
69223;BME280;56514;51.816;-0.026;2023-03-05T10:15:28;101469.97;;;8.08;48.11
69223;BME280;56514;51.816;-0.026;2023-03-05T10:21:13;101467.31;;;7.90;47.69
69223;BME280;56514;51.816;-0.026;2023-03-05T10:24:16;101466.44;;;7.89;48.07
69223;BME280;56514;51.816;-0.026;2023-03-05T10:27:20;101450.78;;;8.06;47.40
69223;BME280;56514;51.816;-0.026;2023-03-05T10:30:28;101436.22;;;7.99;47.34
69223;BME280;56514;51.816;-0.026;2023-03-05T10:33:40;101444.66;;;7.87;47.55
69223;BME280;56514;51.816;-0.026;2023-03-05T10:36:41;101443.72;;;7.88;47.63
69223;BME280;56514;51.816;-0.026;2023-03-05T10:45:35;101426.00;;;7.93;48.50
69223;BME280;56514;51.816;-0.026;2023-03-05T10:48:43;101423.84;;;8.20;46.52
69223;BME280;56514;51.816;-0.026;2023-03-05T10:51:40;101416.41;;;8.11;46.76
69223;BME280;56514;51.816;-0.026;2023-03-05T10:54:32;101411.78;;;8.16;45.96
69223;BME280;56514;51.816;-0.026;2023-03-05T10:57:23;101400.28;;;8.18;46.12
69223;BME280;56514;51.816;-0.026;2023-03-05T11:00:25;101393.41;;;8.34;46.23
69223;BME280;56514;51.816;-0.026;2023-03-05T11:03:11;101389.84;;;8.71;44.56
69223;BME280;56514;51.816;-0.026;2023-03-05T11:06:01;101384.56;;;8.71;44.50
69223;BME280;56514;51.816;-0.026;2023-03-05T11:08:46;101379.78;;;8.79;44.25
69223;BME280;56514;51.816;-0.026;2023-03-05T11:11:31;101372.25;;;8.88;43.88
69223;BME280;56514;51.816;-0.026;2023-03-05T11:14:25;101390.00;;;8.85;44.27
69223;BME280;56514;51.816;-0.026;2023-03-05T11:17:38;101388.66;;;8.76;44.57
69223;BME280;56514;51.816;-0.026;2023-03-05T11:23:22;101397.69;;;8.54;44.20
69223;BME280;56514;51.816;-0.026;2023-03-05T11:28:58;101386.78;;;8.61;43.44
69223;BME280;56514;51.816;-0.026;2023-03-05T11:31:44;101388.72;;;8.41;43.85
69223;BME280;56514;51.816;-0.026;2023-03-05T11:34:30;101378.94;;;8.43;43.92
69223;BME280;56514;51.816;-0.026;2023-03-05T11:37:28;101374.72;;;8.40;43.04
69223;BME280;56514;51.816;-0.026;2023-03-05T11:40:21;101372.03;;;8.23;43.72
69223;BME280;56514;51.816;-0.026;2023-03-05T11:43:14;101371.03;;;8.26;43.57
69223;BME280;56514;51.816;-0.026;2023-03-05T11:46:03;101366.81;;;8.40;43.30
69223;BME280;56514;51.816;-0.026;2023-03-05T11:48:49;101356.78;;;8.48;43.38
69223;BME280;56514;51.816;-0.026;2023-03-05T11:51:50;101350.50;;;8.51;42.97
69223;BME280;56514;51.816;-0.026;2023-03-05T11:55:38;101355.47;;;8.57;42.85
69223;BME280;56514;51.816;-0.026;2023-03-05T12:00:44;101339.28;;;8.47;42.51
69223;BME280;56514;51.816;-0.026;2023-03-05T12:03:33;101338.38;;;8.48;41.60
69223;BME280;56514;51.816;-0.026;2023-03-05T12:06:22;101322.13;;;8.40;41.98
69223;BME280;56514;51.816;-0.026;2023-03-05T12:09:17;101317.47;;;8.28;42.72
69223;BME280;56514;51.816;-0.026;2023-03-05T12:12:46;101307.44;;;8.36;42.31
69223;BME280;56514;51.816;-0.026;2023-03-05T12:15:46;101302.41;;;8.32;42.39
69223;BME280;56514;51.816;-0.026;2023-03-05T12:21:58;101306.81;;;8.31;41.98
69223;BME280;56514;51.816;-0.026;2023-03-05T12:24:43;101295.00;;;8.21;42.40
69223;BME280;56514;51.816;-0.026;2023-03-05T12:27:34;101298.56;;;8.20;42.30
69223;BME280;56514;51.816;-0.026;2023-03-05T12:33:40;101287.47;;;7.97;41.76
69223;BME280;56514;51.816;-0.026;2023-03-05T12:36:33;101284.47;;;7.69;42.85
69223;BME280;56514;51.816;-0.026;2023-03-05T12:39:40;101270.47;;;7.68;42.70
69223;BME280;56514;51.816;-0.026;2023-03-05T12:53:29;101231.53;;;7.41;43.84
69223;BME280;56514;51.816;-0.026;2023-03-05T12:56:21;101234.78;;;7.46;43.61
69223;BME280;56514;51.816;-0.026;2023-03-05T12:59:10;101221.03;;;7.41;43.61
69223;BME280;56514;51.816;-0.026;2023-03-05T13:01:58;101210.06;;;7.51;44.36
69223;BME280;56514;51.816;-0.026;2023-03-05T13:04:47;101206.69;;;7.83;42.63
69223;BME280;56514;51.816;-0.026;2023-03-05T13:07:32;101211.50;;;7.75;42.90
69223;BME280;56514;51.816;-0.026;2023-03-05T13:10:26;101206.25;;;7.75;43.59
69223;BME280;56514;51.816;-0.026;2023-03-05T13:13:13;101201.75;;;7.77;43.92
69223;BME280;56514;51.816;-0.026;2023-03-05T13:16:00;101187.94;;;7.74;43.37
69223;BME280;56514;51.816;-0.026;2023-03-05T13:18:49;101169.78;;;7.69;43.60
69223;BME280;56514;51.816;-0.026;2023-03-05T13:21:34;101173.16;;;7.71;43.11
69223;BME280;56514;51.816;-0.026;2023-03-05T13:24:19;101158.78;;;7.61;43.73
69223;BME280;56514;51.816;-0.026;2023-03-05T13:27:28;101158.56;;;7.66;44.20
69223;BME280;56514;51.816;-0.026;2023-03-05T13:30:25;101157.03;;;7.96;43.53
69223;BME280;56514;51.816;-0.026;2023-03-05T13:33:17;101140.13;;;8.01;43.22
69223;BME280;56514;51.816;-0.026;2023-03-05T13:36:04;101137.28;;;8.06;43.22
69223;BME280;56514;51.816;-0.026;2023-03-05T13:38:49;101140.69;;;7.91;43.04
69223;BME280;56514;51.816;-0.026;2023-03-05T13:41:34;101142.69;;;7.86;43.42
69223;BME280;56514;51.816;-0.026;2023-03-05T13:44:20;101138.13;;;7.72;43.59
69223;BME280;56514;51.816;-0.026;2023-03-05T13:47:19;101130.84;;;7.77;44.02
69223;BME280;56514;51.816;-0.026;2023-03-05T13:50:07;101125.44;;;8.14;44.23
69223;BME280;56514;51.816;-0.026;2023-03-05T13:52:53;101119.28;;;8.48;43.38
69223;BME280;56514;51.816;-0.026;2023-03-05T13:55:38;101119.34;;;8.63;42.42
69223;BME280;56514;51.816;-0.026;2023-03-05T14:01:33;101108.97;;;8.60;42.24
69223;BME280;56514;51.816;-0.026;2023-03-05T14:04:26;101103.88;;;8.57;42.51
69223;BME280;56514;51.816;-0.026;2023-03-05T14:10:38;101100.22;;;8.60;42.50
69223;BME280;56514;51.816;-0.026;2023-03-05T14:13:24;101091.97;;;8.50;42.96
69223;BME280;56514;51.816;-0.026;2023-03-05T14:16:24;101084.09;;;8.50;42.63
69223;BME280;56514;51.816;-0.026;2023-03-05T14:19:34;101087.22;;;8.41;42.51
69223;BME280;56514;51.816;-0.026;2023-03-05T14:22:34;101078.22;;;8.30;42.81
69223;BME280;56514;51.816;-0.026;2023-03-05T14:25:37;101069.72;;;8.25;43.40
69223;BME280;56514;51.816;-0.026;2023-03-05T14:28:28;101067.94;;;8.25;43.06
69223;BME280;56514;51.816;-0.026;2023-03-05T14:31:15;101066.69;;;8.32;43.51
69223;BME280;56514;51.816;-0.026;2023-03-05T14:34:03;101067.72;;;8.61;42.44
69223;BME280;56514;51.816;-0.026;2023-03-05T14:36:51;101066.91;;;8.60;42.70
69223;BME280;56514;51.816;-0.026;2023-03-05T14:39:48;101053.50;;;8.65;42.33
69223;BME280;56514;51.816;-0.026;2023-03-05T14:42:51;101049.31;;;8.61;42.24
69223;BME280;56514;51.816;-0.026;2023-03-05T14:45:39;101034.66;;;8.57;42.19
69223;BME280;56514;51.816;-0.026;2023-03-05T14:48:24;101028.03;;;8.65;42.54
69223;BME280;56514;51.816;-0.026;2023-03-05T14:51:10;101031.44;;;8.67;42.72
69223;BME280;56514;51.816;-0.026;2023-03-05T14:53:56;101026.19;;;8.83;42.46
69223;BME280;56514;51.816;-0.026;2023-03-05T14:56:42;101023.28;;;9.03;42.75
69223;BME280;56514;51.816;-0.026;2023-03-05T14:59:27;101021.03;;;9.27;42.62
69223;BME280;56514;51.816;-0.026;2023-03-05T15:02:15;101025.03;;;9.48;42.32
69223;BME280;56514;51.816;-0.026;2023-03-05T15:05:00;101014.81;;;9.57;41.98
69223;BME280;56514;51.816;-0.026;2023-03-05T15:07:46;101013.53;;;9.64;41.89
69223;BME280;56514;51.816;-0.026;2023-03-05T15:10:32;101005.06;;;9.73;41.98
69223;BME280;56514;51.816;-0.026;2023-03-05T15:13:18;100989.44;;;9.84;41.33
69223;BME280;56514;51.816;-0.026;2023-03-05T15:16:04;100995.00;;;9.80;41.32
69223;BME280;56514;51.816;-0.026;2023-03-05T15:18:49;100990.47;;;9.68;41.22
69223;BME280;56514;51.816;-0.026;2023-03-05T15:21:34;100982.56;;;9.68;41.52
69223;BME280;56514;51.816;-0.026;2023-03-05T15:24:19;100985.59;;;9.76;41.32
69223;BME280;56514;51.816;-0.026;2023-03-05T15:27:04;100972.75;;;9.56;40.56
69223;BME280;56514;51.816;-0.026;2023-03-05T15:29:50;100972.25;;;9.35;41.49
69223;BME280;56514;51.816;-0.026;2023-03-05T15:32:34;100968.41;;;9.41;41.76
69223;BME280;56514;51.816;-0.026;2023-03-05T15:35:20;100959.88;;;9.51;41.79